createdAt,value
2024-02-29T00:00:41.820Z,98473.47
2024-02-29T00:03:32.989Z,98469.50
2024-02-29T00:06:23.907Z,98477.06
2024-02-29T00:09:14.862Z,98470.88
2024-02-29T00:12:06.774Z,98473.88
2024-02-29T00:14:58.418Z,98478.25
2024-02-29T00:17:49.347Z,98472.69
2024-02-29T00:20:40.624Z,98481.88
2024-02-29T00:23:32.330Z,98479.28
2024-02-29T00:26:24.593Z,98488.03
2024-02-29T00:29:15.452Z,98471.50
2024-02-29T00:32:07.131Z,98478.28
2024-02-29T00:34:58.256Z,98484.47
2024-02-29T00:37:49.211Z,98473.09
2024-02-29T00:40:40.174Z,98482.28
2024-02-29T00:43:31.084Z,98484.50
2024-02-29T00:46:23.771Z,98486.88
2024-02-29T00:49:15.252Z,98487.47
2024-02-29T00:52:07.404Z,98482.50
2024-02-29T00:54:58.533Z,98482.31
2024-02-29T00:57:53.009Z,98479.72
2024-02-29T01:00:44.103Z,98480.91
2024-02-29T01:03:36.098Z,98480.50
2024-02-29T01:06:27.374Z,98482.06
2024-02-29T01:09:19.284Z,98484.84
2024-02-29T01:12:10.265Z,98480.22
2024-02-29T01:15:01.089Z,98476.41
2024-02-29T01:17:52.256Z,98486.19
2024-02-29T01:20:43.304Z,98466.81
2024-02-29T01:23:34.209Z,98474.19
2024-02-29T01:26:25.088Z,98476.94
2024-02-29T01:29:15.988Z,98472.34
2024-02-29T01:32:15.744Z,98478.88
2024-02-29T01:35:13.067Z,98482.47
2024-02-29T01:38:04.267Z,98482.63
2024-02-29T01:40:55.353Z,98481.84
2024-02-29T01:43:55.940Z,98481.25
2024-02-29T01:46:46.926Z,98492.75
2024-02-29T01:49:37.870Z,98483.56
2024-02-29T01:52:31.828Z,98483.88
2024-02-29T01:55:22.858Z,98485.63
2024-02-29T01:58:14.481Z,98473.00
2024-02-29T02:01:05.673Z,98475.16
2024-02-29T02:03:56.648Z,98480.09
2024-02-29T02:06:47.661Z,98484.41
2024-02-29T02:09:42.431Z,98475.41
2024-02-29T02:12:33.708Z,98485.16
2024-02-29T02:15:24.593Z,98483.13
2024-02-29T02:18:15.620Z,98482.69
2024-02-29T02:21:06.644Z,98474.03
2024-02-29T02:23:57.571Z,98479.22
2024-02-29T02:26:48.450Z,98475.81
2024-02-29T02:29:39.412Z,98476.00
2024-02-29T02:32:30.430Z,98478.97
2024-02-29T02:35:21.354Z,98473.16
2024-02-29T02:38:12.703Z,98468.19
2024-02-29T02:41:03.829Z,98474.94
2024-02-29T02:43:54.697Z,98473.41
2024-02-29T02:46:45.957Z,98476.25
2024-02-29T02:49:39.779Z,98475.47
2024-02-29T02:52:30.937Z,98467.28
2024-02-29T02:55:21.839Z,98470.22
2024-02-29T02:58:12.880Z,98466.41
2024-02-29T03:01:04.422Z,98467.41
2024-02-29T03:03:55.544Z,98466.59
2024-02-29T03:06:46.471Z,98458.22
2024-02-29T03:09:37.502Z,98461.00
2024-02-29T03:12:28.801Z,98459.38
2024-02-29T03:15:19.715Z,98463.94
2024-02-29T03:18:10.703Z,98471.88
2024-02-29T03:21:03.493Z,98472.25
2024-02-29T03:23:54.339Z,98467.63
2024-02-29T03:26:45.522Z,98464.06
2024-02-29T03:29:36.613Z,98464.06
2024-02-29T03:32:27.955Z,98465.84
2024-02-29T03:35:18.965Z,98464.25
2024-02-29T03:38:09.929Z,98465.66
2024-02-29T03:41:00.840Z,98465.28
2024-02-29T03:43:51.733Z,98455.56
2024-02-29T03:46:42.562Z,98458.78
2024-02-29T03:49:33.531Z,98458.78
2024-02-29T03:52:24.496Z,98451.81
2024-02-29T03:55:15.616Z,98456.00
2024-02-29T03:58:09.348Z,98451.63
2024-02-29T04:01:00.875Z,98447.44
2024-02-29T04:03:51.990Z,98457.34
2024-02-29T04:06:44.035Z,98451.75
2024-02-29T04:09:34.936Z,98445.97
2024-02-29T04:12:26.055Z,98456.13
2024-02-29T04:15:17.941Z,98448.38
2024-02-29T04:18:08.944Z,98438.59
2024-02-29T04:20:59.989Z,98445.09
2024-02-29T04:23:53.447Z,98450.47
2024-02-29T04:26:44.309Z,98432.94
2024-02-29T04:29:35.293Z,98444.06
2024-02-29T04:32:26.237Z,98432.94
2024-02-29T04:35:17.840Z,98435.53
2024-02-29T04:38:08.874Z,98440.69
2024-02-29T04:40:59.688Z,98434.69
2024-02-29T04:43:50.530Z,98444.84
2024-02-29T04:46:43.002Z,98441.28
2024-02-29T04:49:34.877Z,98441.72
2024-02-29T04:52:25.841Z,98438.59
2024-02-29T04:55:16.898Z,98430.66
2024-02-29T04:58:07.899Z,98441.41
2024-02-29T05:00:59.818Z,98436.06
2024-02-29T05:03:50.946Z,98438.81
2024-02-29T05:06:41.889Z,98437.47
2024-02-29T05:09:33.768Z,98435.75
2024-02-29T05:12:28.021Z,98429.59
2024-02-29T05:15:24.303Z,98424.44
2024-02-29T05:18:15.388Z,98425.84
2024-02-29T05:21:06.869Z,98428.88
2024-02-29T05:23:57.971Z,98422.28
2024-02-29T05:26:50.070Z,98415.50
2024-02-29T05:29:40.937Z,98412.72
2024-02-29T05:32:32.154Z,98416.75
2024-02-29T05:35:24.147Z,98413.97
2024-02-29T05:38:15.198Z,98420.75
2024-02-29T05:41:06.287Z,98424.94
2024-02-29T05:43:57.329Z,98425.16
2024-02-29T05:46:48.225Z,98419.03
2024-02-29T05:49:39.238Z,98415.81
2024-02-29T05:52:30.094Z,98423.38
2024-02-29T05:55:21.093Z,98434.19
2024-02-29T05:58:12.398Z,98435.81
2024-02-29T06:01:04.702Z,98440.13
2024-02-29T06:03:56.679Z,98434.19
2024-02-29T06:06:47.703Z,98441.38
2024-02-29T06:09:40.170Z,98437.03
2024-02-29T06:12:32.109Z,98442.00
2024-02-29T06:15:23.264Z,98440.84
2024-02-29T06:18:14.765Z,98436.91
2024-02-29T06:21:06.314Z,98445.25
2024-02-29T06:23:58.242Z,98448.63
2024-02-29T06:26:49.544Z,98449.63
2024-02-29T06:29:40.932Z,98449.41
2024-02-29T06:32:31.844Z,98444.88
2024-02-29T06:35:23.374Z,98448.69
2024-02-29T06:38:16.220Z,98446.69
2024-02-29T06:41:13.024Z,98452.31
2024-02-29T06:44:06.725Z,98455.16
2024-02-29T06:46:57.732Z,98453.97
2024-02-29T06:49:48.770Z,98456.78
2024-02-29T06:52:40.074Z,98460.41
2024-02-29T06:55:30.970Z,98456.81
2024-02-29T06:58:22.708Z,98458.47
2024-02-29T07:01:15.066Z,98451.75
2024-02-29T07:04:08.204Z,98452.59
2024-02-29T07:06:59.183Z,98450.00
2024-02-29T07:09:50.156Z,98440.88
2024-02-29T07:12:44.939Z,98435.13
2024-02-29T07:15:35.933Z,98431.34
2024-02-29T07:18:26.867Z,98434.94
2024-02-29T07:21:17.793Z,98439.91
2024-02-29T07:24:08.841Z,98429.38
2024-02-29T07:26:59.671Z,98439.75
2024-02-29T07:29:50.545Z,98434.81
2024-02-29T07:32:41.824Z,98435.63
2024-02-29T07:35:32.863Z,98438.84
2024-02-29T07:38:25.993Z,98436.09
2024-02-29T07:41:17.379Z,98437.06
2024-02-29T07:44:08.777Z,98429.91
2024-02-29T07:46:59.624Z,98433.09
2024-02-29T07:49:50.523Z,98432.13
2024-02-29T07:52:41.447Z,98419.44
2024-02-29T07:55:32.552Z,98411.28
2024-02-29T07:58:23.580Z,98423.50
2024-02-29T08:01:15.327Z,98423.31
2024-02-29T08:04:06.337Z,98422.09
2024-02-29T08:06:57.429Z,98421.44
2024-02-29T08:09:48.323Z,98419.84
2024-02-29T08:12:39.273Z,98426.03
2024-02-29T08:15:30.177Z,98420.31
2024-02-29T08:18:21.180Z,98414.78
2024-02-29T08:21:12.132Z,98412.00
2024-02-29T08:24:03.145Z,98410.84
2024-02-29T08:26:54.159Z,98407.47
2024-02-29T08:29:45.054Z,98409.25
2024-02-29T08:32:36.074Z,98413.22
2024-02-29T08:35:27.069Z,98406.84
2024-02-29T08:38:18.345Z,98404.41
2024-02-29T08:41:09.247Z,98403.13
2024-02-29T08:44:00.297Z,98394.72
2024-02-29T08:46:51.315Z,98395.91
2024-02-29T08:49:42.200Z,98396.50
2024-02-29T08:52:33.908Z,98397.25
2024-02-29T08:55:24.902Z,98392.31
2024-02-29T08:58:15.856Z,98391.91
2024-02-29T09:01:07.065Z,98390.09
2024-02-29T09:03:57.968Z,98392.28
2024-02-29T09:06:48.995Z,98390.31
2024-02-29T09:09:43.277Z,98393.66
2024-02-29T09:12:35.647Z,98394.84
2024-02-29T09:15:27.309Z,98392.81
2024-02-29T09:18:18.299Z,98392.19
2024-02-29T09:21:09.193Z,98393.94
2024-02-29T09:24:00.016Z,98391.31
2024-02-29T09:26:50.977Z,98389.03
2024-02-29T09:29:42.785Z,98392.63
2024-02-29T09:32:33.651Z,98383.03
2024-02-29T09:35:24.890Z,98381.38
2024-02-29T09:38:15.888Z,98385.50
2024-02-29T09:41:24.544Z,98388.78
2024-02-29T09:44:20.485Z,98384.16
2024-02-29T09:47:14.190Z,98383.09
2024-02-29T09:50:06.342Z,98365.34
2024-02-29T09:52:58.995Z,98366.53
2024-02-29T09:55:50.432Z,98370.75
2024-02-29T09:58:42.315Z,98368.53
2024-02-29T10:01:33.355Z,98363.94
2024-02-29T10:04:24.518Z,98363.69
2024-02-29T10:07:16.036Z,98365.28
2024-02-29T10:10:10.837Z,98361.94
2024-02-29T10:13:01.891Z,98363.94
2024-02-29T10:15:54.208Z,98365.31
2024-02-29T10:18:45.420Z,98355.50
2024-02-29T10:21:37.040Z,98358.47
2024-02-29T10:24:28.125Z,98352.84
2024-02-29T10:27:18.999Z,98336.50
2024-02-29T10:30:18.318Z,98332.63
2024-02-29T10:33:14.367Z,98334.84
2024-02-29T10:36:13.843Z,98320.47
2024-02-29T10:39:04.868Z,98313.69
2024-02-29T10:41:57.135Z,98312.78
2024-02-29T10:44:52.581Z,98311.59
2024-02-29T10:48:16.144Z,98301.50
2024-02-29T10:51:27.884Z,98301.50
2024-02-29T10:54:20.726Z,98292.31
2024-02-29T10:57:19.088Z,98290.28
2024-02-29T11:00:12.986Z,98289.56
2024-02-29T11:03:05.310Z,98284.78
2024-02-29T11:05:57.213Z,98280.63
2024-02-29T11:08:49.061Z,98281.53
2024-02-29T11:11:40.218Z,98269.09
2024-02-29T11:14:38.583Z,98269.75
2024-02-29T11:17:32.430Z,98281.00
2024-02-29T11:20:24.421Z,98266.13
2024-02-29T11:23:18.745Z,98271.78
2024-02-29T11:26:12.036Z,98271.47
2024-02-29T11:29:20.225Z,98269.50
2024-02-29T11:32:11.023Z,98266.53
2024-02-29T11:35:02.486Z,98259.16
2024-02-29T11:37:58.088Z,98259.16
2024-02-29T11:40:49.469Z,98251.47
2024-02-29T11:43:40.254Z,98253.25
2024-02-29T11:46:31.076Z,98251.19
2024-02-29T11:49:22.603Z,98248.03
2024-02-29T11:52:13.510Z,98249.59
2024-02-29T11:55:05.237Z,98245.97
2024-02-29T11:57:57.221Z,98229.88
2024-02-29T12:00:48.056Z,98234.66
2024-02-29T12:03:39.129Z,98239.63
2024-02-29T12:06:30.360Z,98226.56
2024-02-29T12:09:21.138Z,98227.34
2024-02-29T12:12:13.262Z,98213.84
2024-02-29T12:15:09.154Z,98211.28
2024-02-29T12:18:00.056Z,98215.81
2024-02-29T12:20:51.345Z,98198.75
2024-02-29T12:23:42.504Z,98197.00
2024-02-29T12:26:33.381Z,98188.03
2024-02-29T12:29:24.391Z,98183.78
2024-02-29T12:32:15.380Z,98191.50
2024-02-29T12:35:09.760Z,98186.53
2024-02-29T12:38:04.480Z,98176.31
2024-02-29T12:40:56.277Z,98183.69
2024-02-29T12:43:55.321Z,98173.25
2024-02-29T12:46:53.594Z,98181.47
2024-02-29T12:49:44.674Z,98176.81
2024-02-29T12:52:37.097Z,98169.31
2024-02-29T12:55:29.059Z,98171.22
2024-02-29T12:58:20.156Z,98169.13
2024-02-29T13:01:11.108Z,98158.72
2024-02-29T13:04:02.007Z,98153.81
2024-02-29T13:06:53.411Z,98150.97
2024-02-29T13:09:44.264Z,98142.66
2024-02-29T13:12:36.298Z,98144.25
2024-02-29T13:15:27.211Z,98143.19
2024-02-29T13:18:18.097Z,98139.06
2024-02-29T13:21:08.880Z,98134.31
2024-02-29T13:23:59.652Z,98130.72
2024-02-29T13:26:50.433Z,98134.13
2024-02-29T13:29:41.242Z,98123.13
2024-02-29T13:32:32.114Z,98130.38
2024-02-29T13:35:23.009Z,98131.34
2024-02-29T13:38:14.064Z,98123.41
2024-02-29T13:41:06.267Z,98118.81
2024-02-29T13:43:57.141Z,98122.41
2024-02-29T13:46:48.124Z,98110.72
2024-02-29T13:49:39.024Z,98102.97
2024-02-29T13:52:29.882Z,98102.97
2024-02-29T13:55:20.743Z,98098.38
2024-02-29T13:58:11.685Z,98100.75
2024-02-29T14:01:02.618Z,98092.19
2024-02-29T14:03:53.666Z,98090.22
2024-02-29T14:06:45.108Z,98090.00
2024-02-29T14:09:35.991Z,98091.09
2024-02-29T14:12:28.459Z,98085.56
2024-02-29T14:15:20.741Z,98087.13
2024-02-29T14:18:13.791Z,98094.09
2024-02-29T14:21:06.186Z,98086.34
2024-02-29T14:23:57.332Z,98080.97
2024-02-29T14:26:48.989Z,98079.84
2024-02-29T14:29:41.020Z,98077.94
2024-02-29T14:32:31.875Z,98079.19
2024-02-29T14:35:22.680Z,98081.66
2024-02-29T14:38:13.757Z,98074.72
2024-02-29T14:41:04.899Z,98069.09
2024-02-29T14:43:56.959Z,98079.91
2024-02-29T14:46:47.944Z,98078.78
2024-02-29T14:49:39.018Z,98075.75
2024-02-29T14:52:30.180Z,98073.25
2024-02-29T14:55:21.159Z,98083.47
2024-02-29T14:58:12.165Z,98080.75
2024-02-29T15:01:03.176Z,98067.97
2024-02-29T15:03:54.152Z,98074.06
2024-02-29T15:06:46.168Z,98072.50
2024-02-29T15:09:38.977Z,98065.59
2024-02-29T15:12:29.774Z,98070.22
2024-02-29T15:15:20.532Z,98068.88
2024-02-29T15:18:11.393Z,98070.00
2024-02-29T15:21:02.718Z,98077.97
2024-02-29T15:23:53.592Z,98082.31
2024-02-29T15:26:44.384Z,98082.34
2024-02-29T15:29:35.217Z,98073.22
2024-02-29T15:32:26.360Z,98078.03
2024-02-29T15:35:17.212Z,98070.31
2024-02-29T15:38:08.029Z,98058.50
2024-02-29T15:40:59.862Z,98066.56
2024-02-29T15:43:50.872Z,98062.66
2024-02-29T15:46:44.265Z,98059.75
2024-02-29T15:49:36.284Z,98053.69
2024-02-29T15:52:27.440Z,98054.16
2024-02-29T15:55:18.334Z,98066.84
2024-02-29T15:58:09.306Z,98057.75
2024-02-29T16:01:00.358Z,98057.63
2024-02-29T16:03:51.514Z,98058.06
2024-02-29T16:06:42.392Z,98051.94
2024-02-29T16:09:33.635Z,98039.44
2024-02-29T16:12:26.953Z,98050.25
2024-02-29T16:15:19.369Z,98053.09
2024-02-29T16:18:11.798Z,98045.56
2024-02-29T16:21:03.891Z,98047.41
2024-02-29T16:23:54.726Z,98048.47
2024-02-29T16:26:45.655Z,98045.91
2024-02-29T16:29:36.617Z,98047.94
2024-02-29T16:32:27.645Z,98044.56
2024-02-29T16:35:18.402Z,98037.59
2024-02-29T16:38:09.219Z,98046.78
2024-02-29T16:41:01.312Z,98043.00
2024-02-29T16:43:52.130Z,98040.25
2024-02-29T16:46:42.924Z,98040.88
2024-02-29T16:49:33.825Z,98036.50
2024-02-29T16:52:24.733Z,98036.31
2024-02-29T16:55:15.758Z,98034.34
2024-02-29T16:58:06.855Z,98036.09
2024-02-29T17:00:57.752Z,98042.69
2024-02-29T17:03:49.234Z,98035.53
2024-02-29T17:06:40.098Z,98034.56
2024-02-29T17:09:30.856Z,98033.38
2024-02-29T17:12:21.668Z,98031.41
2024-02-29T17:15:12.712Z,98029.22
2024-02-29T17:18:03.753Z,98021.03
2024-02-29T17:20:55.015Z,98031.78
2024-02-29T17:23:46.091Z,98029.03
2024-02-29T17:26:36.931Z,98030.22
2024-02-29T17:29:27.644Z,98034.00
2024-02-29T17:32:18.669Z,98032.00
2024-02-29T17:35:10.057Z,98031.03
2024-02-29T17:38:00.832Z,98021.84
2024-02-29T17:40:51.632Z,98024.66
2024-02-29T17:43:42.465Z,98020.88
2024-02-29T17:46:33.285Z,98016.88
2024-02-29T17:49:24.503Z,98012.13
2024-02-29T17:52:15.386Z,98008.16
2024-02-29T17:55:07.048Z,98012.91
2024-02-29T17:57:58.017Z,98010.72
2024-02-29T18:00:49.101Z,98014.53
2024-02-29T18:03:41.557Z,98009.53
2024-02-29T18:06:33.091Z,98010.75
2024-02-29T18:09:23.977Z,98013.72
2024-02-29T18:12:14.790Z,98008.75
2024-02-29T18:15:06.133Z,98005.78
2024-02-29T18:17:56.959Z,98001.78
2024-02-29T18:20:47.896Z,97996.81
2024-02-29T18:23:38.681Z,97991.03
2024-02-29T18:26:29.398Z,97993.81
2024-02-29T18:29:20.722Z,97989.84
2024-02-29T18:32:11.581Z,97990.84
2024-02-29T18:35:02.669Z,97985.06
2024-02-29T18:37:53.999Z,97981.50
2024-02-29T18:40:44.974Z,97976.50
2024-02-29T18:43:35.770Z,97972.53
2024-02-29T18:46:36.089Z,97977.91
2024-02-29T18:49:27.133Z,97977.09
2024-02-29T18:52:18.033Z,97973.13
2024-02-29T18:55:09.370Z,97970.75
2024-02-29T18:58:00.318Z,97971.75
2024-02-29T19:00:51.634Z,97969.16
2024-02-29T19:03:42.507Z,97958.19
2024-02-29T19:06:33.320Z,97965.38
2024-02-29T19:09:24.214Z,97968.13
2024-02-29T19:12:15.016Z,97954.63
2024-02-29T19:15:08.478Z,97963.19
2024-02-29T19:17:59.422Z,97959.81
2024-02-29T19:20:50.250Z,97959.00
2024-02-29T19:23:41.061Z,97955.63
2024-02-29T19:26:32.337Z,97953.22
2024-02-29T19:29:23.329Z,97955.81
2024-02-29T19:32:14.060Z,97950.06
2024-02-29T19:35:05.336Z,97944.88
2024-02-29T19:37:56.342Z,97948.47
2024-02-29T19:40:47.422Z,97943.31
2024-02-29T19:43:38.321Z,97947.06
2024-02-29T19:46:29.220Z,97937.53
2024-02-29T19:49:20.398Z,97940.31
2024-02-29T19:52:11.269Z,97940.50
2024-02-29T19:55:04.348Z,97930.38
2024-02-29T19:57:55.140Z,97923.59
2024-02-29T20:00:48.463Z,97926.00
2024-02-29T20:03:39.397Z,97921.63
2024-02-29T20:06:30.279Z,97922.63
2024-02-29T20:09:21.758Z,97924.19
2024-02-29T20:12:12.504Z,97927.56
2024-02-29T20:15:06.852Z,97923.41
2024-02-29T20:17:57.740Z,97923.41
2024-02-29T20:20:48.586Z,97918.03
2024-02-29T20:23:39.405Z,97923.19
2024-02-29T20:26:30.255Z,97924.19
2024-02-29T20:29:21.100Z,97925.19
2024-02-29T20:32:14.858Z,97915.66
2024-02-29T20:35:06.309Z,97914.84
2024-02-29T20:37:57.494Z,97896.78
2024-02-29T20:40:48.457Z,97903.53
2024-02-29T20:43:39.291Z,97900.75
2024-02-29T20:46:33.338Z,97894.59
2024-02-29T20:49:24.363Z,97892.59
2024-02-29T20:52:16.602Z,97891.19
2024-02-29T20:55:08.332Z,97893.59
2024-02-29T20:57:59.165Z,97893.59
2024-02-29T21:00:54.102Z,97887.63
2024-02-29T21:03:45.124Z,97891.81
2024-02-29T21:06:35.854Z,97883.03
2024-02-29T21:09:26.864Z,97876.69
2024-02-29T21:12:17.619Z,97871.53
2024-02-29T21:15:08.902Z,97867.16
2024-02-29T21:17:59.769Z,97868.94
2024-02-29T21:20:50.842Z,97860.97
2024-02-29T21:23:41.898Z,97863.34
2024-02-29T21:26:32.770Z,97853.59
2024-02-29T21:29:24.280Z,97858.56
2024-02-29T21:32:15.122Z,97863.56
2024-02-29T21:35:06.439Z,97853.00
2024-02-29T21:37:57.222Z,97851.22
2024-02-29T21:40:49.031Z,97858.78
2024-02-29T21:43:40.500Z,97846.44
2024-02-29T21:46:31.465Z,97847.03
2024-02-29T21:49:22.957Z,97847.44
2024-02-29T21:52:14.014Z,97846.44
2024-02-29T21:55:08.135Z,97843.28
2024-02-29T21:57:58.961Z,97837.09
2024-02-29T22:00:49.823Z,97828.34
2024-02-29T22:03:40.879Z,97830.13
2024-02-29T22:06:31.698Z,97827.53
2024-02-29T22:09:22.798Z,97830.53
2024-02-29T22:12:13.556Z,97820.41
2024-02-29T22:15:05.824Z,97807.88
2024-02-29T22:17:58.580Z,97821.59
2024-02-29T22:20:49.984Z,97811.47
2024-02-29T22:23:41.438Z,97806.28
2024-02-29T22:26:32.506Z,97806.06
2024-02-29T22:29:23.317Z,97802.69
2024-02-29T22:32:14.100Z,97796.34
2024-02-29T22:35:08.921Z,97789.38
2024-02-29T22:37:59.692Z,97780.63
2024-02-29T22:40:50.479Z,97786.41
2024-02-29T22:43:41.373Z,97778.81
2024-02-29T22:46:32.180Z,97784.78
2024-02-29T22:49:23.219Z,97776.84
2024-02-29T22:52:14.303Z,97770.09
2024-02-29T22:55:09.093Z,97763.13
2024-02-29T22:58:00.039Z,97766.69
2024-02-29T23:03:44.499Z,97762.34
2024-02-29T23:06:36.540Z,97762.91
2024-02-29T23:09:27.730Z,97761.91
2024-02-29T23:12:18.511Z,97760.31
2024-02-29T23:15:09.971Z,97751.78
2024-02-29T23:18:01.657Z,97749.41
2024-02-29T23:20:52.523Z,97750.19
2024-02-29T23:23:43.338Z,97745.03
2024-02-29T23:26:34.147Z,97742.63
2024-02-29T23:29:25.315Z,97740.03
2024-02-29T23:32:16.188Z,97741.66
2024-02-29T23:35:07.658Z,97733.06
2024-02-29T23:37:58.436Z,97733.06
2024-02-29T23:40:49.269Z,97745.44
2024-02-29T23:43:40.107Z,97737.28
2024-02-29T23:46:31.013Z,97728.34
2024-02-29T23:49:22.051Z,97729.34
2024-02-29T23:52:13.004Z,97728.75
2024-02-29T23:55:06.069Z,97716.81
2024-02-29T23:57:56.922Z,97718.63
